Time;durP1;ratioP1;P1;durP2;ratioP2;P2;SDS_P1;SDS_P2;PMS_P1;PMS_P2;Temp;Humidity;BMP_temperature;BMP_pressure;BME280_temperature;BME280_humidity;BME280_pressure;Samples;Min_cycle;Max_cycle;Signal;HPM_P1;HPM_P2
2023/12/03 00:00:25;;;;;;;;;30.00;24.00;;;;;0.81;99.68;98780.31;6281359;20;3578485;-47
2023/12/03 00:02:54;;;;;;;;;27.00;18.33;;;;;0.58;95.99;98791.72;6277016;20;3572169;-45
2023/12/03 00:05:23;;;;;;;;;35.00;24.00;;;;;0.64;95.35;98815.28;6313102;20;3586757;-48
2023/12/03 00:07:52;;;;;;;;;34.00;27.33;;;;;0.62;95.31;98814.47;6280731;20;3583700;-47
2023/12/03 00:10:20;;;;;;;;;20.00;15.00;;;;;0.60;94.72;98818.94;6276969;20;2819085;-46
2023/12/03 00:12:48;;;;;;;;;28.00;24.00;;;;;0.60;94.44;98818.06;6281281;20;2826413;-48
2023/12/03 00:15:16;;;;;;;;;27.00;20.00;;;;;0.70;94.63;98811.56;6281375;20;2837935;-51
2023/12/03 00:17:45;;;;;;;;;25.00;20.33;;;;;0.53;94.68;98828.00;6282261;20;3568969;-47
2023/12/03 00:20:13;;;;;;;;;28.00;19.50;;;;;0.51;95.23;98848.31;6312384;20;2842038;-46
2023/12/03 00:22:42;;;;;;;;;24.00;20.00;;;;;0.56;94.79;98843.75;6278876;20;3575379;-47
2023/12/03 00:25:11;;;;;;;;;28.00;23.33;;;;;0.58;94.30;98856.88;6276975;20;3559753;-47
2023/12/03 00:27:39;;;;;;;;;24.00;21.00;;;;;0.54;94.54;98858.78;6312976;20;2836765;-45
2023/12/03 00:30:09;;;;;;;;;21.00;16.67;;;;;0.62;94.55;98874.34;6276860;20;3562815;-47
2023/12/03 00:32:37;;;;;;;;;25.50;23.50;;;;;0.59;94.30;98893.81;6311173;20;2833731;-46
2023/12/03 00:35:07;;;;;;;;;23.00;19.67;;;;;0.70;94.33;98911.09;6279138;20;3564854;-45
2023/12/03 00:37:35;;;;;;;;;35.00;24.00;;;;;0.73;96.02;98929.47;6312122;20;2851284;-48
2023/12/03 00:40:04;;;;;;;;;25.00;22.67;;;;;0.94;96.23;98920.78;6279756;20;3564011;-46
2023/12/03 00:42:33;;;;;;;;;28.33;21.33;;;;;0.76;93.88;98902.94;6308663;20;3560680;-45
2023/12/03 00:45:01;;;;;;;;;22.50;20.00;;;;;1.15;95.34;98920.97;6313623;20;2846125;-47
2023/12/03 00:47:30;;;;;;;;;27.33;21.00;;;;;0.86;94.63;98936.91;6279932;20;3581527;-46
2023/12/03 00:49:58;;;;;;;;;22.00;21.67;;;;;0.70;94.54;98933.06;6277385;20;3556556;-46
2023/12/03 00:52:27;;;;;;;;;25.33;22.33;;;;;0.78;93.65;98952.16;6279052;20;3558595;-45
2023/12/03 00:54:56;;;;;;;;;32.67;23.67;;;;;0.73;93.42;98947.94;6310212;20;3564926;-46
2023/12/03 00:57:25;;;;;;;;;25.67;20.67;;;;;0.87;92.76;98974.78;6307871;20;3561705;-49
2023/12/03 00:59:53;;;;;;;;;21.00;20.50;;;;;0.78;92.16;98970.66;6314374;20;2822321;-46
2023/12/03 01:02:22;;;;;;;;;31.33;18.67;;;;;0.69;92.00;98992.13;6277964;20;3584667;-48
2023/12/03 01:04:52;;;;;;;;;19.40;15.00;;;;;0.65;92.67;98990.47;6302002;20;2825354;-47
2023/12/03 01:07:21;;;;;;;;;28.00;21.00;;;;;0.72;92.46;98996.44;6279299;20;3578175;-50
2023/12/03 01:09:49;;;;;;;;;17.50;12.00;;;;;0.64;92.45;98999.31;6309892;20;2795211;-47
2023/12/03 01:12:18;;;;;;;;;23.33;23.00;;;;;0.63;92.72;99006.38;6280045;20;3564856;-45
2023/12/03 01:14:47;;;;;;;;;25.00;20.67;;;;;0.52;93.53;99000.56;6309932;20;3570109;-44
2023/12/03 01:17:15;;;;;;;;;22.00;20.50;;;;;0.53;94.01;99012.88;6310995;20;2828433;-43
2023/12/03 01:19:43;;;;;;;;;26.00;20.33;;;;;0.58;94.38;99026.81;6278269;20;3570068;-46
2023/12/03 01:22:11;;;;;;;;;27.50;22.00;;;;;0.59;94.64;99036.44;6309965;20;2841993;-44
2023/12/03 01:24:48;;;;;;;;;22.00;17.00;;;;;0.50;95.13;99044.66;6276925;20;2820082;-45
2023/12/03 01:27:17;;;;;;;;;26.67;19.33;;;;;0.59;95.28;99052.28;6278997;20;3573191;-43
2023/12/03 01:29:46;;;;;;;;;24.67;18.00;;;;;0.78;95.16;99070.19;6305971;20;3546160;-46
2023/12/03 01:32:15;;;;;;;;;23.67;23.33;;;;;0.86;95.19;99078.75;6308279;20;3567963;-46
2023/12/03 01:34:44;;;;;;;;;24.67;21.33;;;;;0.61;95.95;99055.75;6278135;20;3568018;-46
2023/12/03 01:37:13;;;;;;;;;25.00;23.00;;;;;0.46;95.74;99064.16;6315849;20;3565995;-44
2023/12/03 01:39:43;;;;;;;;;14.40;11.40;;;;;0.85;96.50;99077.88;6305838;20;2803439;-44
2023/12/03 01:42:12;;;;;;;;;22.00;16.67;;;;;0.68;96.08;99074.03;6283742;20;3575436;-44
2023/12/03 01:44:41;;;;;;;;;25.00;21.33;;;;;0.51;95.01;99083.38;6283347;20;3557647;-42
2023/12/03 01:47:14;;;;;;;;;25.17;17.17;;;;;0.65;94.97;99102.28;6339500;20;2833591;-41
2023/12/03 01:49:42;;;;;;;;;24.50;19.00;;;;;0.57;94.39;99088.44;6313468;20;2833650;-39
2023/12/03 01:52:12;;;;;;;;;21.00;18.33;;;;;0.53;95.20;99078.03;6280278;20;3561696;-43
2023/12/03 01:54:44;;;;;;;;;33.00;24.00;;;;;0.50;95.03;99065.81;6313872;20;3577492;-42
2023/12/03 01:57:14;;;;;;;;;29.00;20.50;;;;;0.53;95.20;99060.41;6312524;20;2840083;-48
2023/12/03 01:59:43;;;;;;;;;22.33;20.67;;;;;0.37;95.57;99054.75;6284233;20;3568026;-45
2023/12/03 02:02:12;;;;;;;;;24.00;16.67;;;;;0.46;95.75;99071.22;6281254;20;3581654;-44
2023/12/03 02:04:41;;;;;;;;;21.33;16.33;;;;;0.43;95.37;99080.09;6281534;20;3558613;-43
2023/12/03 02:07:09;;;;;;;;;24.00;21.00;;;;;0.39;96.19;99100.41;6317102;20;2709645;-45
2023/12/03 02:09:39;;;;;;;;;14.00;12.00;;;;;0.40;95.34;99112.72;6312324;20;2780569;-44
2023/12/03 02:12:07;;;;;;;;;15.00;11.00;;;;;0.36;94.86;99115.50;6279471;20;2781555;-45
2023/12/03 02:14:36;;;;;;;;;20.00;18.00;;;;;0.48;95.07;99131.00;6281869;20;3573197;-49
2023/12/03 02:17:04;;;;;;;;;20.33;17.67;;;;;0.65;97.39;99141.03;6314279;20;3553446;-44
2023/12/03 02:19:34;;;;;;;;;18.80;15.00;;;;;0.55;96.26;99135.16;6337369;20;2807574;-44
2023/12/03 02:22:05;;;;;;;;;22.67;19.00;;;;;0.59;95.45;99139.47;6307108;20;2851153;-45
2023/12/03 02:24:34;;;;;;;;;17.00;14.67;;;;;0.67;94.95;99133.94;6311991;20;2796298;-43
2023/12/03 02:27:03;;;;;;;;;23.00;18.67;;;;;0.37;95.45;99138.34;6314050;20;3577820;-44
2023/12/03 02:29:33;;;;;;;;;20.20;16.00;;;;;0.62;96.28;99146.44;6336157;20;2825349;-46
2023/12/03 02:32:03;;;;;;;;;18.40;15.00;;;;;0.68;94.75;99153.28;6307102;20;2798340;-45
2023/12/03 02:34:33;;;;;;;;;21.20;18.80;;;;;0.55;93.68;99153.66;6307833;20;2821691;-46
2023/12/03 02:37:02;;;;;;;;;23.67;19.33;;;;;0.43;94.56;99162.81;6281514;20;3567042;-47
2023/12/03 02:39:30;;;;;;;;;35.00;28.00;;;;;0.44;94.50;99164.53;6281545;20;2852473;-49
2023/12/03 02:41:59;;;;;;;;;24.33;22.67;;;;;0.47;95.05;99174.13;6281228;20;3556547;-47
2023/12/03 02:44:28;;;;;;;;;20.00;20.00;;;;;0.48;95.34;99183.81;6312314;20;3562755;-47
2023/12/03 02:46:56;;;;;;;;;25.67;18.00;;;;;0.26;96.19;99198.50;6311029;20;3561777;-46
2023/12/03 02:49:25;;;;;;;;;28.33;24.33;;;;;0.33;96.03;99197.44;6310938;20;3567956;-44
2023/12/03 02:51:54;;;;;;;;;24.33;19.33;;;;;0.37;95.85;99207.00;6311943;20;3557561;-46
2023/12/03 02:54:22;;;;;;;;;18.50;15.00;;;;;0.38;95.96;99203.47;6314549;20;2823323;-45
2023/12/03 02:56:51;;;;;;;;;31.33;21.00;;;;;0.35;95.96;99201.78;6279361;20;3588818;-45
2023/12/03 02:59:19;;;;;;;;;17.00;16.00;;;;;0.31;95.76;99208.03;6286074;20;2833641;-45
2023/12/03 03:01:48;;;;;;;;;24.67;20.67;;;;;0.38;95.81;99209.59;6282241;20;3557563;-43
2023/12/03 03:04:16;;;;;;;;;17.00;11.00;;;;;0.27;96.02;99227.53;6311555;20;2789892;-45
2023/12/03 03:06:44;;;;;;;;;38.50;32.00;;;;;0.37;96.88;99229.00;6283716;20;2864936;-48
2023/12/03 03:09:12;;;;;;;;;27.50;24.00;;;;;0.64;97.08;99232.66;6286066;20;2830523;-44
2023/12/03 03:11:41;;;;;;;;;30.33;24.00;;;;;0.44;95.50;99245.53;6277167;20;3579402;-47
2023/12/03 03:14:09;;;;;;;;;25.67;17.00;;;;;0.44;96.46;99245.53;6313556;20;3573180;-44
2023/12/03 03:16:38;;;;;;;;;18.00;17.00;;;;;0.53;95.63;99263.78;6278176;20;3567010;-44
2023/12/03 03:19:06;;;;;;;;;14.00;13.00;;;;;0.56;95.16;99279.53;6312625;20;2775337;-44
2023/12/03 03:21:39;;;;;;;;;20.60;17.00;;;;;0.35;96.22;99282.78;6306203;20;2810833;-45
2023/12/03 03:24:08;;;;;;;;;25.33;18.00;;;;;0.80;95.43;99290.34;6280169;20;3562741;-48
2023/12/03 03:26:42;;;;;;;;;17.67;14.33;;;;;0.36;95.63;99300.34;6312885;20;3554554;-41
2023/12/03 03:29:11;;;;;;;;;22.00;21.33;;;;;0.17;96.67;99300.81;6314440;20;3551393;-45
2023/12/03 03:31:40;;;;;;;;;26.67;19.00;;;;;0.25;97.08;99286.56;6313202;20;3556539;-45
2023/12/03 03:34:09;;;;;;;;;20.67;17.67;;;;;0.14;97.13;99295.63;6313669;20;3557635;-41
2023/12/03 03:36:37;;;;;;;;;22.00;17.00;;;;;0.18;97.19;99302.53;6315381;20;2827368;-42
2023/12/03 03:39:06;;;;;;;;;23.67;18.00;;;;;0.26;97.94;99310.25;6278865;20;3555566;-41
2023/12/03 03:41:36;;;;;;;;;22.00;15.20;;;;;0.16;97.47;99309.66;6336047;20;2804565;-40
2023/12/03 03:44:05;;;;;;;;;26.67;21.00;;;;;0.22;97.53;99308.63;6280919;20;3577391;-44
2023/12/03 03:46:35;;;;;;;;;26.17;22.50;;;;;0.09;97.51;99317.75;6336200;20;2833690;-47
2023/12/03 03:49:04;;;;;;;;;26.50;17.50;;;;;0.12;98.47;99323.81;6313963;20;3453406;-47
2023/12/03 03:51:32;;;;;;;;;15.50;13.00;;;;;0.12;97.72;99334.38;6311176;20;2819044;-45
2023/12/03 03:54:02;;;;;;;;;17.80;16.60;;;;;0.26;98.70;99341.09;6303314;20;2827376;-44
2023/12/03 03:56:30;;;;;;;;;23.50;20.50;;;;;0.21;98.32;99344.72;6280139;20;2824254;-47
2023/12/03 03:58:58;;;;;;;;;25.33;18.00;;;;;0.34;98.56;99354.94;6280292;20;3560732;-45
2023/12/03 04:01:27;;;;;;;;;20.67;17.00;;;;;0.24;98.62;99369.28;6312885;20;3568051;-46
2023/12/03 04:03:56;;;;;;;;;23.33;20.33;;;;;0.31;98.43;99373.53;6311405;20;3581599;-45
2023/12/03 04:06:26;;;;;;;;;18.60;15.60;;;;;0.44;98.52;99388.16;6337191;20;2823312;-47
2023/12/03 04:08:55;;;;;;;;;21.33;17.00;;;;;0.44;99.60;99393.44;6279195;20;3564876;-45
2023/12/03 04:11:24;;;;;;;;;25.00;23.33;;;;;0.24;98.13;99400.97;6313101;20;3553447;-46
2023/12/03 04:13:52;;;;;;;;;33.50;27.00;;;;;0.04;97.28;99410.25;6314634;20;2847175;-45
2023/12/03 04:16:22;;;;;;;;;39.50;30.00;;;;;0.08;96.79;99400.47;6281001;20;2856505;-46
2023/12/03 04:18:51;;;;;;;;;24.67;18.67;;;;;-0.05;97.83;99400.78;6278665;20;3551303;-45
2023/12/03 04:21:20;;;;;;;;;26.00;18.67;;;;;-0.03;97.47;99409.53;6312003;20;3566923;-46
2023/12/03 04:23:49;;;;;;;;;22.67;17.33;;;;;-0.11;97.35;99415.88;6312140;20;3573188;-45
2023/12/03 04:26:17;;;;;;;;;28.00;21.00;;;;;-0.06;97.22;99428.03;6310761;20;2850330;-40
2023/12/03 04:28:46;;;;;;;;;23.67;20.67;;;;;-0.14;97.39;99426.50;6278731;20;3557629;-40
2023/12/03 04:31:25;;;;;;;;;12.50;10.00;;;;;-0.06;97.09;99419.28;6310562;20;2784690;-41
2023/12/03 04:33:56;;;;;;;;;37.33;20.00;;;;;-0.03;97.30;99408.63;6277960;20;3606545;-46
2023/12/03 04:36:26;;;;;;;;;20.50;20.50;;;;;-0.28;96.49;99419.75;6279336;20;2828821;-45
2023/12/03 04:38:57;;;;;;;;;20.40;18.20;;;;;-0.08;97.08;99436.91;6304475;20;2829546;-45
2023/12/03 04:41:46;;;;;;;;;21.67;15.67;;;;;-0.08;97.01;99439.53;6276201;20;3555571;-46
2023/12/03 04:44:15;;;;;;;;;31.00;23.00;;;;;0.21;97.31;99450.31;6311767;20;3575266;-47
2023/12/03 04:46:44;;;;;;;;;17.33;17.33;;;;;0.68;98.00;99449.19;6280839;20;3561805;-46
2023/12/03 04:49:14;;;;;;;;;22.40;18.60;;;;;0.31;96.57;99461.50;6332953;20;2821264;-46
2023/12/03 04:51:43;;;;;;;;;29.67;20.00;;;;;0.08;95.05;99469.97;6277298;20;3557548;-45
2023/12/03 04:54:11;;;;;;;;;21.50;19.00;;;;;0.32;95.36;99478.25;6314107;20;2833640;-44
2023/12/03 04:56:42;;;;;;;;;19.17;17.33;;;;;0.13;94.89;99480.41;6300562;20;2831551;-45
2023/12/03 04:59:10;;;;;;;;;23.00;20.00;;;;;0.14;94.76;99493.59;6313665;20;1971159;-44
2023/12/03 05:01:38;;;;;;;;;22.33;17.33;;;;;0.04;94.30;99494.69;6311034;20;3575261;-46
2023/12/03 05:04:07;;;;;;;;;26.67;21.00;;;;;0.42;92.99;99501.75;6308177;20;3574316;-45
2023/12/03 05:06:36;;;;;;;;;23.00;16.67;;;;;0.00;93.85;99503.59;6311715;20;3558616;-46
2023/12/03 05:09:06;;;;;;;;;19.40;16.60;;;;;0.24;93.74;99506.56;6332039;20;2829486;-47
2023/12/03 05:11:40;;;;;;;;;19.67;16.33;;;;;0.39;92.80;99503.59;6286418;20;3552388;-44
2023/12/03 05:14:11;;;;;;;;;16.60;14.00;;;;;0.19;93.55;99499.63;6340711;20;2823166;-47
2023/12/03 05:16:41;;;;;;;;;19.83;17.17;;;;;0.44;92.42;99510.50;6307162;20;2835716;-44
2023/12/03 05:19:10;;;;;;;;;28.33;20.00;;;;;0.47;92.39;99509.56;6313731;20;3587842;-41
2023/12/03 05:21:39;;;;;;;;;19.33;14.00;;;;;0.23;93.30;99511.00;6312501;20;3550265;-42
2023/12/03 05:24:10;;;;;;;;;23.83;18.83;;;;;0.48;93.15;99513.09;6337874;20;2834654;-41
2023/12/03 05:26:38;;;;;;;;;32.50;23.50;;;;;0.55;93.76;99523.44;6316945;20;2837803;-41
2023/12/03 05:29:06;;;;;;;;;22.00;21.67;;;;;0.37;93.63;99523.88;6282407;20;3563841;-41
2023/12/03 05:31:34;;;;;;;;;27.00;21.00;;;;;0.69;95.64;99536.34;6314511;20;2500392;-40
2023/12/03 05:34:02;;;;;;;;;35.00;30.50;;;;;0.32;93.83;99531.06;6281096;20;2859645;-41
2023/12/03 05:36:31;;;;;;;;;24.00;19.67;;;;;0.07;94.76;99531.56;6284913;20;3546120;-41
2023/12/03 05:38:59;;;;;;;;;19.00;15.50;;;;;0.41;94.74;99536.97;6315597;20;2822125;-40
2023/12/03 05:41:28;;;;;;;;;27.00;21.00;;;;;0.02;95.57;99549.28;6282107;20;3558623;-42
2023/12/03 05:43:57;;;;;;;;;18.33;15.33;;;;;-0.14;95.61;99553.13;6311489;20;3546124;-42
2023/12/03 05:46:25;;;;;;;;;24.00;15.50;;;;;-0.22;95.29;99556.78;6318039;20;2824229;-41
2023/12/03 05:48:54;;;;;;;;;20.67;18.67;;;;;0.03;94.40;99566.88;6281678;20;3551310;-41
2023/12/03 05:51:23;;;;;;;;;25.33;15.67;;;;;-0.27;94.46;99560.44;6314467;20;3570100;-41
2023/12/03 05:53:51;;;;;;;;;20.67;17.00;;;;;-0.32;94.75;99563.16;6313093;20;3566947;-41
2023/12/03 05:56:20;;;;;;;;;17.00;17.00;;;;;-0.28;95.24;99563.97;6314146;20;2827342;-42
2023/12/03 05:58:49;;;;;;;;;19.67;17.00;;;;;-0.04;93.62;99571.38;6281691;20;3559655;-40
2023/12/03 06:01:30;;;;;;;;;19.00;19.00;;;;;-0.32;94.46;99578.97;6311304;20;3557536;-44
2023/12/03 06:03:59;;;;;;;;;26.00;17.33;;;;;-0.35;95.44;99576.41;6312822;20;3579697;-42
2023/12/03 06:06:28;;;;;;;;;21.67;16.33;;;;;-0.36;95.94;99584.34;6283782;20;3562805;-42
2023/12/03 06:09:17;;;;;;;;;22.00;17.33;;;;;-0.41;96.05;99583.56;6314107;20;3566995;-40
2023/12/03 06:12:07;;;;;;;;;23.00;20.67;;;;;-0.41;95.32;99591.47;6312942;20;3556620;-42
2023/12/03 06:14:55;;;;;;;;;15.67;15.67;;;;;-0.35;95.38;99594.00;6315195;20;3552454;-41
2023/12/03 06:17:23;;;;;;;;;30.00;24.00;;;;;-0.12;96.81;99598.84;6317632;20;2828429;-42
2023/12/03 06:19:52;;;;;;;;;27.67;22.00;;;;;-0.44;96.25;99602.97;6283112;20;3561704;-47
2023/12/03 06:22:21;;;;;;;;;25.33;19.33;;;;;-0.48;95.58;99601.25;6312619;20;3581516;-47
2023/12/03 06:24:50;;;;;;;;;24.00;20.00;;;;;-0.43;96.99;99609.97;6315850;20;3554446;-46
2023/12/03 06:27:18;;;;;;;;;20.50;15.00;;;;;-0.54;95.66;99612.78;6313019;20;2797261;-48
2023/12/03 06:29:47;;;;;;;;;20.33;16.33;;;;;-0.65;96.08;99619.16;6282286;20;3561909;-48
2023/12/03 06:32:15;;;;;;;;;22.00;19.50;;;;;-0.45;95.89;99627.56;6314298;20;2818102;-43
2023/12/03 06:34:44;;;;;;;;;19.00;18.33;;;;;-0.37;94.97;99628.34;6285050;20;2834761;-42
2023/12/03 06:37:13;;;;;;;;;26.67;18.67;;;;;-0.38;94.50;99631.84;6313502;20;3571115;-42
2023/12/03 06:39:42;;;;;;;;;23.33;20.00;;;;;-0.58;94.45;99644.50;6314461;20;3567969;-43
2023/12/03 06:42:11;;;;;;;;;17.00;17.00;;;;;-0.50;93.97;99647.88;6313470;20;3566926;-42
2023/12/03 06:44:39;;;;;;;;;29.00;23.00;;;;;-0.42;93.95;99659.19;6313199;20;2835724;-41
2023/12/03 06:47:12;;;;;;;;;25.33;20.33;;;;;-0.57;94.04;99665.59;6280614;20;3555634;-41
2023/12/03 06:49:42;;;;;;;;;19.00;14.00;;;;;-0.52;94.47;99665.53;6312549;20;2807529;-42
2023/12/03 06:52:11;;;;;;;;;32.67;26.67;;;;;-0.61;94.26;99663.88;6281662;20;3591945;-41
2023/12/03 06:54:40;;;;;;;;;23.67;20.33;;;;;-0.56;93.26;99677.00;6279220;20;3566968;-42
2023/12/03 06:57:09;;;;;;;;;23.33;21.00;;;;;-0.66;94.02;99681.53;6312858;20;3555892;-48
2023/12/03 06:59:38;;;;;;;;;23.67;23.00;;;;;-0.26;93.40;99684.41;6278804;20;3560851;-47
2023/12/03 07:02:07;;;;;;;;;25.00;19.00;;;;;-0.32;93.25;99687.13;6312882;20;3579458;-47
2023/12/03 07:04:37;;;;;;;;;35.33;24.67;;;;;-0.04;92.39;99692.78;6282192;20;3588938;-46
2023/12/03 07:07:06;;;;;;;;;29.67;23.33;;;;;-0.22;94.07;99693.97;6282182;20;3573187;-49
2023/12/03 07:09:34;;;;;;;;;34.00;29.00;;;;;-0.41;93.22;99705.75;6311715;20;2500373;-49
2023/12/03 07:12:08;;;;;;;;;32.33;20.00;;;;;-0.44;92.42;99708.44;6281892;20;3573205;-45
2023/12/03 07:14:38;;;;;;;;;22.80;17.20;;;;;-0.53;93.23;99714.72;6335628;20;2818100;-45
2023/12/03 07:17:07;;;;;;;;;22.67;16.00;;;;;-0.41;92.18;99716.31;6279513;20;2815967;-47
2023/12/03 07:19:35;;;;;;;;;19.00;17.00;;;;;-0.41;92.44;99720.72;6311517;20;2835653;-46
2023/12/03 07:22:05;;;;;;;;;20.00;13.60;;;;;-0.29;90.49;99724.03;6305097;20;2819055;-45
2023/12/03 07:24:34;;;;;;;;;19.00;17.00;;;;;0.08;90.32;99726.03;6283208;20;3560669;-45
2023/12/03 07:27:03;;;;;;;;;23.00;23.00;;;;;0.13;89.99;99725.91;6312118;20;3556649;-47
2023/12/03 07:29:32;;;;;;;;;26.67;22.00;;;;;-0.18;90.36;99730.91;6309478;20;3583616;-47
2023/12/03 07:32:02;;;;;;;;;23.33;23.00;;;;;-0.20;89.64;99743.22;6310442;20;3581496;-46
2023/12/03 07:34:50;;;;;;;;;20.20;17.40;;;;;-0.18;89.81;99746.72;6336415;20;2814825;-48
2023/12/03 07:37:19;;;;;;;;;26.33;20.00;;;;;-0.02;89.23;99738.50;6282432;20;3555544;-47
2023/12/03 07:39:49;;;;;;;;;19.20;16.60;;;;;0.32;88.29;99739.66;6337545;20;2828383;-45
2023/12/03 07:42:40;;;;;;;;;21.00;17.33;;;;;0.13;88.02;99742.66;6279982;20;3561772;-46
2023/12/03 07:45:29;;;;;;;;;23.33;18.00;;;;;-0.03;88.49;99757.00;6310908;20;3574281;-47
2023/12/03 07:48:18;;;;;;;;;24.33;18.67;;;;;0.28;87.90;99764.38;6279155;20;3560724;-46
2023/12/03 07:50:47;;;;;;;;;36.50;29.00;;;;;0.13;88.75;99763.75;6312452;20;2854566;-46
2023/12/03 07:53:21;;;;;;;;;44.00;38.50;;;;;0.32;88.68;99772.22;6281517;20;2864857;-47
2023/12/03 07:55:51;;;;;;;;;27.33;18.00;;;;;0.24;87.37;99771.50;6282800;20;3590854;-45
2023/12/03 07:58:39;;;;;;;;;58.00;46.00;;;;;0.10;88.45;99777.00;6305740;20;2495014;-47
2023/12/03 08:01:29;;;;;;;;;43.33;32.33;;;;;-0.17;88.65;99774.84;6278364;20;2871209;-46
2023/12/03 08:03:58;;;;;;;;;25.00;21.00;;;;;-0.38;88.80;99776.06;6311582;20;2500775;-45
2023/12/03 08:06:27;;;;;;;;;46.50;45.00;;;;;-0.05;88.92;99769.38;6281478;20;2860823;-45
2023/12/03 08:08:58;;;;;;;;;20.67;17.00;;;;;-0.24;88.21;99785.50;6283133;20;3560792;-44
2023/12/03 08:11:26;;;;;;;;;21.00;19.00;;;;;0.12;88.10;99790.19;6315667;20;2821227;-48
2023/12/03 08:13:55;;;;;;;;;38.50;30.00;;;;;0.33;87.20;99786.28;6276916;20;2500332;-46
2023/12/03 08:16:23;;;;;;;;;25.00;22.50;;;;;0.72;86.37;99792.56;6282571;20;2823234;-44
2023/12/03 08:18:52;;;;;;;;;26.00;21.67;;;;;0.08;86.51;99789.38;6277698;20;3563940;-44
2023/12/03 08:21:21;;;;;;;;;15.67;13.67;;;;;0.23;85.57;99790.84;6311273;20;3532557;-48
2023/12/03 08:23:52;;;;;;;;;9.00;9.00;;;;;0.54;83.51;99795.56;6311254;20;2770116;-45
2023/12/03 08:26:42;;;;;;;;;23.67;14.33;;;;;0.57;82.88;99808.72;6280982;20;3550658;-46
2023/12/03 08:29:31;;;;;;;;;26.50;24.00;;;;;0.39;83.40;99805.50;6314364;20;2841956;-49
2023/12/03 08:32:20;;;;;;;;;26.00;20.50;;;;;0.49;83.02;99818.56;6282786;20;2832550;-48
2023/12/03 08:35:09;;;;;;;;;27.00;24.00;;;;;0.74;82.59;99813.66;6277857;20;2500425;-47
2023/12/03 08:37:58;;;;;;;;;24.00;18.00;;;;;0.92;81.64;99826.53;6269471;20;3577846;-46
2023/12/03 08:40:47;;;;;;;;;19.00;18.00;;;;;0.65;81.33;99836.72;6310093;20;2815977;-47
2023/12/03 08:43:36;;;;;;;;;22.50;13.00;;;;;0.62;79.79;99836.78;6278939;20;2808645;-46
2023/12/03 08:46:26;;;;;;;;;12.75;9.50;;;;;1.28;82.64;99847.81;6299031;20;1823278;-46
2023/12/03 08:49:14;;;;;;;;;19.00;19.00;;;;;1.26;79.33;99852.28;6263044;20;2820053;-45
2023/12/03 08:52:05;;;;;;;;;22.00;15.00;;;;;0.91;79.07;99855.66;6274852;20;3564901;-51
2023/12/03 08:54:56;;;;;;;;;15.00;14.50;;;;;0.94;80.19;99853.81;6307218;20;2792012;-51
2023/12/03 08:57:47;;;;;;;;;20.33;17.00;;;;;1.58;76.41;99867.47;6277915;20;3548231;-47
2023/12/03 09:00:37;;;;;;;;;23.33;17.33;;;;;1.02;75.86;99859.81;6308654;20;3564885;-45
2023/12/03 09:03:25;;;;;;;;;24.00;16.00;;;;;0.88;75.49;99865.38;6308588;20;2835753;-49
2023/12/03 09:05:55;;;;;;;;;26.00;18.00;;;;;1.01;75.95;99867.78;6277832;20;3566077;-44
2023/12/03 09:15:56;;;;;;;;;21.50;19.00;;;;;0.66;75.71;99877.25;5567266;20;2820173;-48
2023/12/03 09:18:24;;;;;;;;;26.50;25.00;;;;;0.65;75.52;99867.56;6273548;20;2500422;-49
2023/12/03 09:21:01;;;;;;;;;55.50;42.50;;;;;1.26;75.21;99870.78;6280719;20;2876409;-47
2023/12/03 09:23:35;;;;;;;;;37.33;29.67;;;;;0.77;76.18;99871.78;6274459;20;2868021;-47
2023/12/03 09:26:07;;;;;;;;;18.00;15.00;;;;;1.29;75.48;99878.66;6310570;20;2801472;-49
2023/12/03 09:28:36;;;;;;;;;33.50;33.50;;;;;1.42;76.89;99882.81;6272565;20;2853397;-40
2023/12/03 09:31:04;;;;;;;;;26.00;19.00;;;;;1.36;74.03;99890.00;6271300;20;2829476;-41
2023/12/03 09:33:56;;;;;;;;;22.17;22.17;;;;;1.40;73.69;99879.31;6289039;20;2842135;-48
2023/12/03 09:36:24;;;;;;;;;25.50;23.00;;;;;1.49;74.72;99878.25;6297429;20;2828417;-45
2023/12/03 09:38:53;;;;;;;;;21.33;19.67;;;;;1.75;75.21;99890.91;6272381;20;3545081;-44
2023/12/03 09:41:25;;;;;;;;;13.00;8.50;;;;;1.44;72.16;99886.28;6298101;20;2766037;-48
2023/12/03 09:44:04;;;;;;;;;14.00;11.00;;;;;1.45;70.82;99882.75;6268415;20;2792033;-45
2023/12/03 09:46:42;;;;;;;;;14.67;13.00;;;;;1.47;70.45;99885.34;6267790;20;3526539;-47
2023/12/03 09:49:15;;;;;;;;;20.33;17.33;;;;;1.47;70.78;99885.34;6297323;20;3555463;-46
2023/12/03 09:51:51;;;;;;;;;16.60;15.40;;;;;1.56;70.28;99884.28;6323211;20;2803426;-46
2023/12/03 09:54:23;;;;;;;;;24.67;19.33;;;;;1.59;72.20;99884.22;6268490;20;3562773;-47
2023/12/03 09:56:58;;;;;;;;;18.00;13.00;;;;;1.32;72.10;99868.03;6307092;20;2794246;-47
2023/12/03 09:59:29;;;;;;;;;26.50;19.50;;;;;1.51;72.22;99866.72;6273476;20;2827432;-49
2023/12/03 10:02:00;;;;;;;;;18.33;15.67;;;;;1.39;71.25;99872.28;6273998;20;2813948;-47
2023/12/03 10:04:34;;;;;;;;;16.33;15.00;;;;;1.52;70.96;99873.75;6303491;20;2799349;-47
2023/12/03 10:07:12;;;;;;;;;25.33;19.00;;;;;1.42;70.41;99866.94;6303933;20;3570056;-50
2023/12/03 10:09:44;;;;;;;;;15.50;13.00;;;;;1.38;71.63;99873.19;6302659;20;2806537;-46
2023/12/03 10:12:20;;;;;;;;;20.00;19.00;;;;;1.88;73.92;99879.13;6276672;20;2825400;-45
2023/12/03 10:15:12;;;;;;;;;24.33;16.67;;;;;1.64;71.26;99883.22;6270963;20;3566920;-47
2023/12/03 10:17:48;;;;;;;;;20.33;14.67;;;;;1.49;71.11;99881.75;6304977;20;3557576;-46
2023/12/03 10:20:22;;;;;;;;;21.00;17.67;;;;;2.04;70.35;99886.72;6301442;20;3573328;-46
2023/12/03 10:22:58;;;;;;;;;16.67;12.67;;;;;2.09;72.85;99885.69;6272093;20;2799439;-45
2023/12/03 10:25:35;;;;;;;;;19.67;13.67;;;;;1.63;69.78;99886.75;6305364;20;3535672;-47
2023/12/03 10:28:09;;;;;;;;;40.50;33.50;;;;;1.62;70.00;99892.09;6305605;20;2864865;-46
2023/12/03 10:30:56;;;;;;;;;30.33;24.67;;;;;2.16;69.67;99897.03;6269705;20;3579464;-45
2023/12/03 10:33:46;;;;;;;;;45.00;38.67;;;;;2.21;69.64;99887.16;6270846;20;2867982;-50
2023/12/03 10:36:16;;;;;;;;;32.00;22.50;;;;;2.40;68.41;99885.81;6304484;20;2844044;-51
2023/12/03 10:38:45;;;;;;;;;21.00;16.00;;;;;2.16;68.54;99891.75;6271797;20;2822164;-45
2023/12/03 10:41:24;;;;;;;;;18.60;13.40;;;;;2.09;69.01;99901.59;6292415;20;2803486;-48
2023/12/03 10:43:53;;;;;;;;;22.00;14.67;;;;;1.75;68.29;99893.56;6269554;20;3555465;-44
2023/12/03 10:46:21;;;;;;;;;17.00;15.00;;;;;2.14;67.66;99904.13;6300293;20;2811764;-47
2023/12/03 10:48:52;;;;;;;;;20.00;13.00;;;;;1.85;68.49;99903.03;6295133;20;2802370;-50
2023/12/03 10:51:20;;;;;;;;;19.00;16.00;;;;;1.90;67.81;99914.41;6267792;20;2820225;-47
2023/12/03 10:53:52;;;;;;;;;21.67;14.67;;;;;1.92;68.34;99912.59;6268783;20;3561800;-45
2023/12/03 10:56:23;;;;;;;;;19.00;13.00;;;;;1.76;67.14;99916.47;6289760;20;2791949;-48
2023/12/03 10:58:55;;;;;;;;;35.33;32.33;;;;;1.86;68.92;99925.06;6266671;20;3600319;-45
2023/12/03 11:01:25;;;;;;;;;46.50;38.50;;;;;2.20;65.48;99906.63;6265833;20;2864918;-46
2023/12/03 11:04:19;;;;;;;;;29.50;20.00;;;;;2.20;68.83;99914.59;6269896;20;2839149;-47
2023/12/03 11:06:55;;;;;;;;;19.50;18.50;;;;;2.37;68.25;99917.72;6266964;20;2844083;-45
2023/12/03 11:09:25;;;;;;;;;16.50;9.50;;;;;2.05;66.65;99915.81;6266908;20;2790941;-47
2023/12/03 11:11:57;;;;;;;;;20.33;18.33;;;;;2.22;65.02;99918.06;6264913;20;3564842;-50
2023/12/03 11:14:27;;;;;;;;;19.50;18.00;;;;;2.10;64.84;99918.34;6298753;20;2832604;-46
2023/12/03 11:17:32;;;;;;;;;19.00;15.33;;;;;2.29;65.78;99917.03;6263569;20;3557662;-48
2023/12/03 11:20:18;;;;;;;;;15.50;11.00;;;;;1.88;65.05;99917.97;6297233;20;2783745;-46
2023/12/03 11:23:51;;;;;;;;;10.00;10.00;;;;;1.86;65.70;99918.00;6263999;20;2780511;-45
2023/12/03 11:26:20;;;;;;;;;14.00;12.50;;;;;1.72;66.58;99917.44;6268190;20;2790975;-46
2023/12/03 11:28:59;;;;;;;;;13.00;13.00;;;;;1.86;66.02;99907.41;6266710;20;2793026;-45
2023/12/03 11:31:30;;;;;;;;;24.17;17.17;;;;;2.01;65.42;99911.50;6290887;20;3585692;-45
2023/12/03 11:34:05;;;;;;;;;21.00;21.00;;;;;1.68;66.63;99903.38;6264617;20;3551316;-43
2023/12/03 11:36:49;;;;;;;;;21.67;17.00;;;;;1.56;68.00;99906.31;6299505;20;3579934;-45